Flight Track Log - Related Links

Times and Time Zones

All times are in EDT time to prevent confusion due to time zone crossing. See the SWA318 flight status page for this flight to view local times or setup timezone preferences in your user account.

Time Position Orientation Groundspeed Altitude Reporting Facility
EDT Latitude Longitude Course Direction KTS MPH feet Rate Location/Type
Mon 05:25:23 PM 42.9500 -87.8833 20° North 174 200 1,400  Level KMKE
Mon 05:26:29 PM 42.9833 -87.8667 20° North 200 230 3,400 2,000 Climbing KMKE
Mon 05:27:29 PM 42.9833 -87.9500 270° West 260 299 5,600 2,786 Climbing KMKE
Mon 05:28:49 PM 42.9686 -88.0847 262° West 269 310 9,900 2,704 Climbing Chicago Center
Mon 05:29:51 PM 42.9597 -88.1969 264° West 292 336 12,000 2,468 Climbing Chicago Center
Mon 05:30:53 PM 42.9489 -88.3300 264° West 342 394 15,000 2,661 Climbing Chicago Center
Mon 05:31:55 PM 42.9372 -88.4631 263° West 350 403 17,500 2,419 Climbing Chicago Center
Mon 05:32:57 PM 42.9361 -88.6061 269° West 370 426 20,000 2,613 Climbing Chicago Center
Mon 05:33:59 PM 42.9331 -88.7775 269° West 385 443 22,900 2,468 Climbing Chicago Center
Mon 05:35:01 PM 42.9306 -88.9269 269° West 391 450 25,100 1,887 Climbing Chicago Center
Mon 05:36:03 PM 42.9278 -89.0800 269° West 400 460 26,800 1,694 Climbing Chicago Center
Mon 05:37:05 PM 42.9256 -89.2394 269° West 416 479 28,600 1,500 Climbing Chicago Center
Mon 05:38:07 PM 42.9192 -89.4006 267° West 423 487 29,900 1,500 Climbing Chicago Center
Mon 05:39:09 PM 42.9114 -89.5653 266° West 432 497 31,700 1,694 Climbing Chicago Center
Mon 05:40:11 PM 42.9022 -89.7567 266° West 433 498 33,400 1,452 Climbing Chicago Center
Mon 05:41:13 PM 42.8628 -89.9194 252° West 452 520 34,700 1,200 Climbing Chicago Center
Mon 05:42:16 PM 42.8292 -90.0664 253° West 455 524 35,900 1,248 Climbing Chicago Center
Mon 05:43:18 PM 42.7831 -90.2583 252° West 449 517 37,300 1,016 Climbing Chicago Center
Mon 05:44:20 PM 42.7558 -90.4183 257° West 442 509 38,000 339 Climbing Chicago Center
Mon 05:45:22 PM 42.7292 -90.5794 257° West 441 507 38,000  Level Chicago Center
Mon 05:46:24 PM 42.7019 -90.7444 257° West 448 516 38,000  Level Chicago Center
Mon 05:47:26 PM 42.6736 -90.9081 257° West 449 517 38,000  Level Chicago Center
Mon 05:48:28 PM 42.6408 -91.1064 257° West 453 521 38,000  Level Chicago Center
Mon 05:49:30 PM 42.6114 -91.2714 256° West 451 519 38,000  Level Chicago Center
Mon 05:50:32 PM 42.5806 -91.4375 256° West 452 520 38,000  Level Chicago Center
Mon 05:51:34 PM 42.5525 -91.6056 257° West 453 521 38,000  Level Chicago Center
Mon 05:52:36 PM 42.5225 -91.7708 256° West 451 519 38,000  Level Chicago Center
Mon 05:53:38 PM 42.4925 -91.9353 256° West 450 518 38,000  Level Chicago Center
Mon 05:54:40 PM 42.4633 -92.0989 256° West 448 516 38,000  Level Chicago Center
Mon 05:55:43 PM 42.4269 -92.2936 256° West 450 518 38,000  Level Chicago Center
Mon 05:56:45 PM 42.3969 -92.4569 256° West 451 519 38,000  Level Chicago Center
Mon 05:57:47 PM 42.3667 -92.6169 256° West 446 513 38,000  Level Chicago Center
Mon 05:58:49 PM 42.3364 -92.7778 256° West 447 514 38,000  Level Chicago Center
Mon 05:59:51 PM 42.3061 -92.9381 256° West 444 511 38,000  Level Chicago Center
Mon 06:00:53 PM 42.2683 -93.1297 255° West 444 511 38,000  Level Chicago Center
Mon 06:01:46 PM 42.2447 -93.2581 256° West 445 512 38,000  Level Minneapolis Center
Mon 06:02:47 PM 42.2128 -93.4175 255° West 445 512 38,000  Level Minneapolis Center
Mon 06:03:49 PM 42.1822 -93.5797 256° West 448 516 38,000  Level Minneapolis Center
Mon 06:04:51 PM 42.1433 -93.7731 255° West 449 517 38,000  Level Minneapolis Center
Mon 06:05:53 PM 42.1122 -93.9331 255° West 455 524 38,000  Level Minneapolis Center
Mon 06:06:55 PM 42.0789 -94.0964 255° West 452 520 38,000  Level Minneapolis Center
Mon 06:07:57 PM 42.0467 -94.2583 255° West 450 518 38,000  Level Minneapolis Center
Mon 06:08:59 PM 42.0058 -94.4547 254° West 453 521 38,000  Level Minneapolis Center
Mon 06:10:01 PM 41.9728 -94.6186 255° West 455 524 38,000  Level Minneapolis Center
Mon 06:11:03 PM 41.9378 -94.7831 254° West 457 526 38,000  Level Minneapolis Center
Mon 06:12:06 PM 41.9028 -94.9464 254° West 458 527 38,000  Level Minneapolis Center
Mon 06:13:08 PM 41.8689 -95.1092 254° West 454 522 38,000  Level Minneapolis Center
Mon 06:14:10 PM 41.8342 -95.2722 254° West 456 525 38,000  Level Minneapolis Center
Mon 06:15:12 PM 41.7911 -95.4658 253° West 454 522 38,000  Level Minneapolis Center
Mon 06:16:14 PM 41.7553 -95.6292 254° West 457 526 38,000  Level Minneapolis Center
Mon 06:17:16 PM 41.7197 -95.7908 254° West 457 526 38,000  Level Minneapolis Center
Mon 06:18:18 PM 41.6847 -95.9528 254° West 457 526 38,000  Level Minneapolis Center
Mon 06:19:20 PM 41.6464 -96.1281 254° West 457 526 38,000  Level Minneapolis Center
Mon 06:20:22 PM 41.6089 -96.2908 253° West 459 528 38,000  Level Minneapolis Center
Mon 06:21:24 PM 41.5697 -96.4692 254° West 460 529 38,000  Level Minneapolis Center
Mon 06:22:26 PM 41.5319 -96.6314 253° West 460 529 38,000  Level Minneapolis Center
Mon 06:23:28 PM 41.4950 -96.7931 253° West 459 528 38,000  Level Minneapolis Center
Mon 06:24:30 PM 41.4572 -96.9539 253° West 457 526 38,000  Level Minneapolis Center
Mon 06:25:33 PM 41.4119 -97.1483 253° West 459 528 38,000  Level Minneapolis Center
Mon 06:26:35 PM 41.3739 -97.3092 253° West 458 527 38,000  Level Minneapolis Center
Mon 06:27:37 PM 41.3383 -97.4600 253° West 458 527 38,000  Level Minneapolis Center
Mon 06:28:39 PM 41.2914 -97.6547 252° West 460 529 38,000  Level Minneapolis Center
Mon 06:29:41 PM 41.2522 -97.8181 252° West 462 532 38,000  Level Minneapolis Center
Mon 06:30:43 PM 41.2133 -97.9800 252° West 461 531 38,000  Level Minneapolis Center
Mon 06:31:45 PM 41.1742 -98.1408 252° West 458 527 38,000  Level Minneapolis Center
Mon 06:32:47 PM 41.1350 -98.3014 252° West 457 526 38,000  Level Minneapolis Center
Mon 06:33:49 PM 41.0933 -98.4694 252° West 457 526 38,000  Level Minneapolis Center
Mon 06:34:51 PM 41.0525 -98.6283 251° West 457 526 38,000  Level Minneapolis Center
Mon 06:35:53 PM 41.0111 -98.7892 251° West 460 529 38,000  Level Minneapolis Center
Mon 06:36:55 PM 40.9639 -98.9833 252° West 462 532 38,000  Level Minneapolis Center
Mon 06:37:57 PM 40.9228 -99.1472 252° West 457 526 38,000  Level Minneapolis Center
Mon 06:39:01 PM 40.8825 -99.3067 252° West 457 526 38,000  Level Denver Center
Mon 06:40:02 PM 40.8417 -99.4667 251° West 459 528 38,000  Level Denver Center
Mon 06:41:04 PM 40.8000 -99.6261 251° West 460 529 38,000  Level Denver Center
Mon 06:42:06 PM 40.7578 -99.7850 251° West 460 529 38,000  Level Denver Center
Mon 06:43:08 PM 40.7125 -99.9583 251° West 460 529 38,000  Level Denver Center
Mon 06:44:10 PM 40.6717 -100.1119 251° West 462 532 38,000  Level Denver Center
Mon 06:45:12 PM 40.6244 -100.2886 251° West 459 528 38,000  Level Denver Center
Mon 06:46:13 PM 40.5839 -100.4419 251° West 459 528 38,000  Level Denver Center
Mon 06:47:15 PM 40.5358 -100.6203 251° West 461 531 38,000  Level Denver Center
Mon 06:48:17 PM 40.4931 -100.7725 250° West 460 529 38,000  Level Denver Center
Mon 06:49:19 PM 40.4528 -100.9258 251° West 461 531 38,000  Level Denver Center
Mon 06:50:21 PM 40.4286 -101.1083 260° West 454 522 38,000  Level Denver Center
Mon 06:51:22 PM 40.4067 -101.2639 260° West 452 520 38,000  Level Denver Center
Mon 06:52:24 PM 40.3814 -101.4458 260° West 452 520 38,000  Level Denver Center
Mon 06:53:26 PM 40.3603 -101.6014 260° West 452 520 38,000  Level Denver Center
Mon 06:54:40 PM 40.3356 -101.7831 260° West 454 522 38,000  Level Denver Center
Mon 06:55:42 PM 40.3083 -101.9644 259° West 454 522 38,000  Level Denver Center
Mon 06:56:44 PM 40.2825 -102.1461 259° West 455 524 38,000  Level Denver Center
Mon 06:57:46 PM 40.2603 -102.3017 259° West 455 524 38,000  Level Denver Center
Mon 06:58:48 PM 40.2331 -102.4828 259° West 455 524 38,000  Level Denver Center
Mon 06:59:49 PM 40.2097 -102.6372 259° West 454 522 38,000  Level Denver Center
Mon 07:00:51 PM 40.1842 -102.8072 259° West 451 519 38,000  Level Denver Center
Mon 07:01:53 PM 40.1650 -102.9375 259° West 455 524 38,000  Level Denver Center
Mon 07:02:55 PM 40.1353 -103.1297 259° West 453 521 38,000  Level Denver Center
Mon 07:03:57 PM 40.1103 -103.2894 258° West 451 519 38,000  Level Denver Center
Mon 07:04:59 PM 40.0850 -103.4497 258° West 454 522 38,000  Level Denver Center
Mon 07:06:01 PM 40.0550 -103.6439 259° West 456 525 38,000  Level Denver Center
Mon 07:07:02 PM 40.0294 -103.8064 258° West 462 532 38,000  Level Denver Center
Mon 07:08:16 PM 40.0025 -103.9692 258° West 455 524 38,000  Level Denver Center
Mon 07:09:19 PM 39.9711 -104.1653 258° West 461 531 38,000  Level Denver Center
Mon 07:10:20 PM 39.9447 -104.3272 258° West 458 527 38,000  Level Denver Center
Mon 07:11:22 PM 39.9183 -104.4878 258° West 458 527 38,000  Level Denver Center
Mon 07:12:24 PM 39.8858 -104.6803 258° West 460 529 38,000  Level Denver Center
Mon 07:13:26 PM 39.8539 -104.8392 255° West 461 531 38,000  Level Denver Center
Mon 07:14:28 PM 39.8222 -105.0025 256° West 452 520 38,000  Level Denver Center
Mon 07:15:30 PM 39.7914 -105.1611 256° West 461 531 38,000  Level Denver Center
Mon 07:16:32 PM 39.7522 -105.3542 255° West 451 519 38,000  Level Denver Center
Mon 07:17:34 PM 39.7214 -105.5150 256° West 459 528 38,000  Level Denver Center
Mon 07:18:36 PM 39.6886 -105.6753 255° West 464 534 38,000  Level Denver Center
Mon 07:19:38 PM 39.6581 -105.8319 256° West 448 516 38,000  Level Denver Center
Mon 07:20:40 PM 39.6267 -105.9925 256° West 458 527 38,000  Level Denver Center
Mon 07:21:42 PM 39.5911 -106.1661 255° West 461 531 38,000  Level Denver Center
Mon 07:22:44 PM 39.5594 -106.3186 255° West 461 531 38,000  Level Denver Center
Mon 07:23:46 PM 39.5267 -106.4764 255° West 456 525 38,000  Level Denver Center
Mon 07:24:48 PM 39.4864 -106.6683 255° West 457 526 38,000  Level Denver Center
Mon 07:25:51 PM 39.4528 -106.8200 254° West 459 528 38,000  Level Denver Center
Mon 07:26:53 PM 39.4122 -106.9961 253° West 458 527 38,000  Level Denver Center
Mon 07:27:55 PM 39.3767 -107.1453 253° West 454 522 38,000  Level Denver Center
Mon 07:28:57 PM 39.3311 -107.3214 252° West 460 529 38,000  Level Denver Center
Mon 07:29:59 PM 39.2939 -107.4708 252° West 458 527 38,000  Level Denver Center
Mon 07:31:01 PM 39.2481 -107.6464 251° West 460 529 38,000  Level Denver Center
Mon 07:32:03 PM 39.2114 -107.7936 252° West 453 521 38,000  Level Denver Center
Mon 07:33:05 PM 39.1725 -107.9419 251° West 454 522 38,000  Level Denver Center
Mon 07:34:07 PM 39.1286 -108.1122 252° West 447 514 38,000  Level Denver Center
Mon 07:35:09 PM 39.0908 -108.2583 252° West 447 514 38,000  Level Denver Center
Mon 07:36:11 PM 39.0433 -108.4364 251° West 469 540 38,000  Level Denver Center
Mon 07:37:13 PM 39.0033 -108.5867 251° West 464 534 38,000  Level Denver Center
Mon 07:38:15 PM 38.9575 -108.7586 251° West 455 524 38,000  Level Denver Center
Mon 07:39:17 PM 38.9178 -108.9050 251° West 453 521 38,000  Level Denver Center
Mon 07:40:19 PM 38.8717 -109.0783 251° West 457 526 38,000  Level Denver Center
Mon 07:41:21 PM 38.8314 -109.2253 251° West 454 522 38,000  Level Denver Center
Mon 07:42:23 PM 38.7917 -109.3733 251° West 457 526 38,000  Level Denver Center
Mon 07:43:25 PM 38.7450 -109.5428 251° West 452 520 38,000  Level Denver Center
Mon 07:44:27 PM 38.7044 -109.6844 250° West 443 510 38,000  Level Denver Center
Mon 07:45:29 PM 38.6572 -109.8531 250° West 450 518 38,000  Level Denver Center
Mon 07:46:31 PM 38.6161 -109.9978 250° West 451 519 38,000  Level Denver Center
Mon 07:47:33 PM 38.5692 -110.1658 250° West 450 518 38,000 -97 Level Denver Center
Mon 07:48:35 PM 38.5136 -110.3006 242° Southwest 450 518 37,800 -629 Descending Denver Center
Mon 07:49:37 PM 38.4400 -110.4481 238° Southwest 441 507 36,700 -871 Descending Denver Center
Mon 07:50:39 PM 38.3772 -110.5767 238° Southwest 446 513 36,000 -387 Descending Denver Center
Mon 07:51:41 PM 38.3044 -110.7267 238° Southwest 448 516 35,900 -532 Descending Denver Center
Mon 07:52:43 PM 38.2414 -110.8553 238° Southwest 447 514 34,900 -919 Descending Denver Center
Mon 07:53:45 PM 38.1706 -110.9992 238° Southwest 453 521 34,000 -435 Descending Denver Center
Mon 07:54:47 PM 38.1047 -111.1333 238° Southwest 450 518 34,000  Level Denver Center
Mon 07:55:50 PM 38.0381 -111.2667 238° Southwest 447 514 34,000 -549 Level Denver Center
Mon 07:57:09 PM 37.9475 -111.4542 239° Southwest 446 513 32,700 -851 Descending Salt Lake Center
Mon 07:58:11 PM 37.8811 -111.5867 238° Southwest 446 513 32,000 -341 Descending Salt Lake Center
Mon 07:59:12 PM 37.8131 -111.7192 237° Southwest 448 516 32,000  Level Salt Lake Center
Mon 08:00:14 PM 37.7328 -111.8369 229° Southwest 442 509 32,000  Level Salt Lake Center
Mon 08:01:16 PM 37.6428 -111.9444 223° Southwest 443 510 32,000  Level Salt Lake Center
Mon 08:02:17 PM 37.5528 -112.0553 224° Southwest 449 517 32,000  Level Salt Lake Center
Mon 08:02:58 PM 37.4811 -112.1478 226° Southwest 455 524 32,000  Level Los Angeles Center
Mon 08:04:00 PM 37.4197 -112.2850 241° Southwest 450 518 32,000 -194 Level Los Angeles Center
Mon 08:05:02 PM 37.3572 -112.4222 240° Southwest 449 517 31,600 -629 Descending Los Angeles Center
Mon 08:06:04 PM 37.2942 -112.5600 240° Southwest 451 519 30,700 -919 Descending Los Angeles Center
Mon 08:07:06 PM 37.2294 -112.6989 240° Southwest 455 524 29,700 -1,016 Descending Los Angeles Center
Mon 08:08:08 PM 37.1642 -112.8389 240° Southwest 461 531 28,600 -1,113 Descending Los Angeles Center
Mon 08:09:10 PM 37.0883 -113.0031 240° Southwest 452 520 27,400 -1,065 Descending Los Angeles Center
Mon 08:10:12 PM 37.0261 -113.1364 240° Southwest 443 510 26,400 -1,008 Descending Los Angeles Center
Mon 08:11:15 PM 36.9653 -113.2667 240° Southwest 434 499 25,300 -1,008 Descending Los Angeles Center
Mon 08:12:17 PM 36.9036 -113.3942 239° Southwest 429 494 24,300 -968 Descending Los Angeles Center
Mon 08:13:19 PM 36.8444 -113.5208 240° Southwest 424 488 23,300 -968 Descending Los Angeles Center
Mon 08:14:21 PM 36.7861 -113.6431 239° Southwest 413 475 22,300 -968 Descending Los Angeles Center
Mon 08:15:23 PM 36.7272 -113.7644 239° Southwest 410 472 21,300 -1,113 Descending Los Angeles Center
Mon 08:16:25 PM 36.6569 -113.9078 239° Southwest 405 466 20,000 -774 Descending Los Angeles Center
Mon 08:17:27 PM 36.6025 -114.0264 240° Southwest 398 458 19,700 -1,306 Descending Los Angeles Center
Mon 08:18:29 PM 36.5475 -114.1383 239° Southwest 385 443 17,300 -2,411 Descending Los Angeles Center
Mon 08:19:14 PM 36.5094 -114.2317 243° Southwest 379 436 15,400 -2,339 Descending Los Angeles Center
Mon 08:20:27 PM 36.4469 -114.3683 240° Southwest 356 410 12,700 -1,543 Descending Los Angeles Center
Mon 08:21:34 PM 36.3947 -114.4744 239° Southwest 312 359 11,800 -797 Descending Los Angeles Center
Mon 08:22:35 PM 36.3189 -114.5028 197° South 290 334 11,000 -714 Descending Los Angeles Center
Mon 08:23:40 PM 36.2472 -114.5092 184° South 273 314 10,300 -517 Descending Los Angeles Center
Mon 08:24:31 PM 36.2236 -114.5806 248° West 256 295 10,000 -457 Descending Los Angeles Center
Mon 08:25:25 PM 36.2275 -114.6567 274° West 249 287 9,500 -843 Descending Los Angeles Center
Mon 08:26:32 PM 36.1997 -114.7461 249° West 243 280 8,300 -938 Descending Los Angeles Center
Mon 08:27:33 PM 36.1736 -114.8242 248° West 243 280 7,500 -931 Descending Los Angeles Center
Mon 08:28:28 PM 36.1550 -114.8864 250° West 210 242 6,500 -691 Descending Los Angeles Center
Mon 08:29:52 PM 36.1300 -114.9642 248° West 195 224 5,900 -639 Descending Los Angeles Center
Mon 08:30:30 PM 36.1347 -115.0106 277° West 177 204 5,200 -1,347 Descending Los Angeles Center
Mon 08:31:30 PM 36.1394 -115.0728 275° West 184 212 3,700 -1,148 Descending Los Angeles Center
Mon 08:32:25 PM 36.1311 -115.1233 258° West 164 189 3,000 -674 Descending Los Angeles Center
Mon 08:32:59 PM 36.1236 -115.1392 240° Southwest 168 193 2,700 -563 Descending Los Angeles Center
Mon 08:34:01 PM 36.0814 -115.1625 204° Southwest 151 174 2,100 -581 Descending Los Angeles Center

Login

Don't have an account? Register now (free) for customized features, flight alerts, and more!